createdAt,value
2016-07-26T00:00:27.865Z,0
2016-07-26T00:01:27.769Z,0
2016-07-26T00:02:27.714Z,0
2016-07-26T00:04:27.724Z,0
2016-07-26T00:05:27.809Z,0
2016-07-26T00:06:28.443Z,0
2016-07-26T00:07:27.721Z,0
2016-07-26T00:08:29.468Z,0
2016-07-26T00:09:27.737Z,0
2016-07-26T00:10:27.744Z,0
2016-07-26T00:11:27.739Z,0
2016-07-26T00:12:28.050Z,0
2016-07-26T00:13:27.716Z,0
2016-07-26T00:14:27.698Z,0
2016-07-26T00:27:27.623Z,0
2016-07-26T00:27:44.775Z,0
2016-07-26T00:28:44.676Z,0
2016-07-26T00:29:44.721Z,0
2016-07-26T00:30:44.682Z,0
2016-07-26T00:31:44.749Z,0
2016-07-26T00:32:44.773Z,0
2016-07-26T00:33:43.359Z,0
2016-07-26T00:34:44.713Z,0
2016-07-26T00:35:45.645Z,0
2016-07-26T00:36:44.828Z,0
2016-07-26T00:37:44.736Z,0
2016-07-26T00:38:44.754Z,0
2016-07-26T00:39:45.421Z,0
2016-07-26T00:40:45.028Z,0
2016-07-26T00:41:44.744Z,0
2016-07-26T00:42:44.701Z,0
2016-07-26T00:43:47.129Z,0
2016-07-26T00:44:44.665Z,0
2016-07-26T00:45:44.766Z,0
2016-07-26T00:46:44.803Z,0
2016-07-26T00:47:44.799Z,0
2016-07-26T00:48:43.243Z,0
2016-07-26T00:49:44.730Z,0
2016-07-26T00:50:44.787Z,0
2016-07-26T00:51:44.726Z,0
2016-07-26T00:52:44.756Z,0
2016-07-26T00:53:46.879Z,0
2016-07-26T00:54:44.715Z,0
2016-07-26T00:55:44.725Z,0
2016-07-26T00:56:44.683Z,0
2016-07-26T00:57:44.809Z,0
2016-07-26T00:58:44.716Z,0
2016-07-26T00:59:44.716Z,0
2016-07-26T01:00:44.702Z,0
2016-07-26T01:01:44.678Z,0
2016-07-26T01:02:44.734Z,0
2016-07-26T01:04:44.703Z,0
2016-07-26T01:05:44.741Z,0
2016-07-26T01:06:45.043Z,0
2016-07-26T01:07:44.756Z,0
2016-07-26T01:08:44.739Z,0
2016-07-26T01:09:44.791Z,0
2016-07-26T01:10:44.749Z,0
2016-07-26T01:11:44.784Z,0
2016-07-26T01:12:44.700Z,0
2016-07-26T01:13:46.473Z,0
2016-07-26T01:26:46.524Z,0
2016-07-26T01:27:04.357Z,0
2016-07-26T01:28:04.876Z,0
2016-07-26T01:29:04.921Z,0
2016-07-26T01:42:04.800Z,0
2016-07-26T01:42:22.674Z,0
2016-07-26T01:43:21.991Z,0
2016-07-26T01:44:21.953Z,0
2016-07-26T01:45:21.954Z,0
2016-07-26T01:46:21.995Z,0
2016-07-26T01:47:22.017Z,0
2016-07-26T01:48:23.244Z,0
2016-07-26T01:49:21.959Z,0
2016-07-26T01:50:22.001Z,0
2016-07-26T01:51:22.078Z,0
2016-07-26T01:52:22.281Z,0
2016-07-26T01:53:21.894Z,0
2016-07-26T01:54:21.958Z,0
2016-07-26T01:55:22.006Z,0
2016-07-26T01:56:22.738Z,0
2016-07-26T01:57:21.908Z,0
2016-07-26T01:58:22.004Z,0
2016-07-26T01:59:21.950Z,0
2016-07-26T02:00:21.936Z,0
2016-07-26T02:01:22.010Z,0
2016-07-26T02:02:21.957Z,0
2016-07-26T02:03:22.006Z,0
2016-07-26T02:04:21.935Z,0
2016-07-26T02:05:22.001Z,0
2016-07-26T02:06:21.968Z,0
2016-07-26T02:07:22.016Z,0
2016-07-26T02:08:22.671Z,0
2016-07-26T02:09:23.184Z,0
2016-07-26T02:10:22.002Z,0
2016-07-26T02:11:21.952Z,0
2016-07-26T02:12:21.976Z,0
2016-07-26T02:13:22.020Z,0
2016-07-26T02:14:22.054Z,0
2016-07-26T02:15:21.931Z,0
2016-07-26T02:16:22.098Z,0
2016-07-26T02:17:21.990Z,0
2016-07-26T02:18:21.896Z,0
2016-07-26T02:19:22.099Z,0
2016-07-26T02:20:21.955Z,0
2016-07-26T02:21:26.519Z,0
2016-07-26T02:22:21.916Z,0
2016-07-26T02:23:21.966Z,0
2016-07-26T02:24:21.962Z,0
2016-07-26T02:25:21.971Z,0
2016-07-26T02:26:22.170Z,0
2016-07-26T02:27:21.899Z,0
2016-07-26T02:28:22.039Z,0
2016-07-26T02:29:22.468Z,0
2016-07-26T02:30:22.023Z,0
2016-07-26T02:31:21.932Z,0
2016-07-26T02:32:21.975Z,0
2016-07-26T02:33:22.039Z,0
2016-07-26T02:34:22.090Z,0
2016-07-26T02:35:21.910Z,0
2016-07-26T02:36:21.938Z,0
2016-07-26T02:37:22.070Z,0
2016-07-26T02:38:22.157Z,0
2016-07-26T02:39:21.992Z,0
2016-07-26T02:40:22.130Z,0
2016-07-26T02:41:22.065Z,0
2016-07-26T02:42:21.958Z,0
2016-07-26T02:43:23.601Z,0
2016-07-26T02:44:22.119Z,0
2016-07-26T02:45:22.385Z,0
2016-07-26T02:46:22.608Z,0
2016-07-26T02:47:23.382Z,0
2016-07-26T02:48:21.946Z,0
2016-07-26T02:49:22.177Z,0
2016-07-26T02:50:23.229Z,0
2016-07-26T02:51:21.915Z,0
2016-07-26T02:52:22.808Z,0
2016-07-26T02:53:21.918Z,0
2016-07-26T02:54:22.059Z,0
2016-07-26T02:55:21.966Z,0
2016-07-26T02:56:22.744Z,0
2016-07-26T02:57:21.953Z,0
2016-07-26T02:58:21.994Z,0
2016-07-26T02:59:22.537Z,0
2016-07-26T03:00:23.937Z,0
2016-07-26T03:01:21.980Z,0
2016-07-26T03:02:21.948Z,0
2016-07-26T03:03:21.908Z,0
2016-07-26T03:04:20.472Z,0
2016-07-26T03:05:22.577Z,0
2016-07-26T03:06:22.072Z,0
2016-07-26T03:07:21.960Z,0
2016-07-26T03:08:21.974Z,0
2016-07-26T03:09:21.969Z,0
2016-07-26T03:10:21.994Z,0
2016-07-26T03:11:22.009Z,0
2016-07-26T03:12:22.086Z,0
2016-07-26T03:13:22.541Z,0
2016-07-26T03:14:22.284Z,0
2016-07-26T03:15:21.939Z,0
2016-07-26T03:16:21.953Z,0
2016-07-26T03:17:23.406Z,0
2016-07-26T03:18:22.040Z,0
2016-07-26T03:19:25.579Z,0
2016-07-26T03:20:21.972Z,0
2016-07-26T03:21:22.013Z,0
2016-07-26T03:22:21.930Z,0
2016-07-26T03:23:22.049Z,0
2016-07-26T03:24:21.960Z,0
2016-07-26T03:25:22.078Z,0
2016-07-26T03:26:21.963Z,0
2016-07-26T03:27:21.971Z,0
2016-07-26T03:28:22.433Z,0
2016-07-26T03:29:22.016Z,0
2016-07-26T03:30:21.991Z,0
2016-07-26T03:31:21.979Z,0
2016-07-26T03:32:21.992Z,0
2016-07-26T03:33:22.592Z,0
2016-07-26T03:34:20.573Z,0
2016-07-26T03:35:21.997Z,0
2016-07-26T03:36:22.003Z,0
2016-07-26T03:37:22.039Z,0
2016-07-26T03:38:22.033Z,0
2016-07-26T03:39:21.981Z,0
2016-07-26T03:40:22.077Z,0
2016-07-26T03:41:22.334Z,0
2016-07-26T03:42:22.039Z,0
2016-07-26T03:43:22.045Z,0
2016-07-26T03:44:22.115Z,5
2016-07-26T03:45:22.000Z,5
2016-07-26T03:46:21.986Z,5
2016-07-26T03:47:22.458Z,5
2016-07-26T03:48:22.064Z,5
2016-07-26T03:50:21.996Z,5
2016-07-26T03:51:22.066Z,5
2016-07-26T03:52:22.080Z,10
2016-07-26T03:53:22.004Z,10
2016-07-26T03:54:22.239Z,10
2016-07-26T03:55:21.969Z,10
2016-07-26T03:56:22.025Z,10
2016-07-26T03:57:21.981Z,10
2016-07-26T03:58:22.056Z,10
2016-07-26T03:59:22.077Z,15
2016-07-26T04:00:22.263Z,15
2016-07-26T04:01:24.149Z,15
2016-07-26T04:02:22.061Z,15
2016-07-26T04:03:22.286Z,15
2016-07-26T04:05:21.996Z,15
2016-07-26T04:06:22.028Z,20
2016-07-26T04:07:21.968Z,20
2016-07-26T04:08:21.986Z,20
2016-07-26T04:09:22.034Z,25
2016-07-26T04:10:22.041Z,25
2016-07-26T04:11:22.556Z,30
2016-07-26T04:12:22.016Z,30
2016-07-26T04:13:22.067Z,30
2016-07-26T04:14:22.035Z,30
2016-07-26T04:15:22.004Z,30
2016-07-26T04:16:22.034Z,30
2016-07-26T04:17:22.057Z,35
2016-07-26T04:18:21.992Z,35
2016-07-26T04:20:22.032Z,40
2016-07-26T04:21:22.125Z,40
2016-07-26T04:22:22.050Z,40
2016-07-26T04:23:21.990Z,40
2016-07-26T04:24:21.990Z,45
2016-07-26T04:25:21.999Z,45
2016-07-26T04:26:21.990Z,45
2016-07-26T04:27:22.002Z,45
2016-07-26T04:28:22.083Z,40
2016-07-26T04:29:22.058Z,40
2016-07-26T04:30:22.184Z,40
2016-07-26T04:31:22.056Z,45
2016-07-26T04:32:22.023Z,45
2016-07-26T04:33:22.074Z,45
2016-07-26T04:35:22.039Z,45
2016-07-26T04:36:22.083Z,50
2016-07-26T04:49:37.752Z,75
2016-07-26T04:50:38.987Z,80
2016-07-26T04:51:38.366Z,80
2016-07-26T04:52:38.377Z,85
2016-07-26T04:53:38.291Z,90
2016-07-26T04:54:38.210Z,90
2016-07-26T04:55:38.246Z,85
2016-07-26T04:56:38.293Z,85
2016-07-26T04:57:38.290Z,90
2016-07-26T04:58:38.297Z,95
2016-07-26T04:59:38.293Z,95
2016-07-26T05:00:38.293Z,95
2016-07-26T05:01:38.270Z,100
2016-07-26T05:02:38.266Z,115
2016-07-26T05:03:38.312Z,130
2016-07-26T05:04:37.844Z,140
2016-07-26T05:05:38.348Z,145
2016-07-26T05:06:39.227Z,145
2016-07-26T05:07:38.288Z,150
2016-07-26T05:08:38.277Z,165
2016-07-26T05:09:38.296Z,170
2016-07-26T05:10:38.413Z,160
2016-07-26T05:11:38.558Z,150
2016-07-26T05:12:38.337Z,115
2016-07-26T05:13:38.889Z,110
2016-07-26T05:14:38.519Z,110
2016-07-26T05:15:38.372Z,115
2016-07-26T05:16:38.319Z,115
2016-07-26T05:17:38.254Z,125
2016-07-26T05:18:38.347Z,130
2016-07-26T05:19:37.786Z,140
2016-07-26T05:20:38.354Z,175
2016-07-26T05:21:38.361Z,160
2016-07-26T05:22:39.099Z,150
2016-07-26T05:23:38.437Z,155
2016-07-26T05:24:38.258Z,150
2016-07-26T05:25:38.337Z,155
2016-07-26T05:26:38.272Z,155
2016-07-26T05:27:38.201Z,150
2016-07-26T05:28:38.346Z,150
2016-07-26T05:29:38.291Z,155
2016-07-26T05:30:38.321Z,160
2016-07-26T05:31:38.766Z,160
2016-07-26T05:32:38.321Z,155
2016-07-26T05:33:39.567Z,160
2016-07-26T05:34:38.265Z,165
2016-07-26T05:35:38.388Z,160
2016-07-26T05:36:40.736Z,170
2016-07-26T05:37:38.341Z,170
2016-07-26T05:38:38.404Z,170
2016-07-26T05:39:38.276Z,175
2016-07-26T05:40:38.314Z,180
2016-07-26T05:41:38.343Z,180
2016-07-26T05:42:38.324Z,180
2016-07-26T05:43:38.330Z,175
2016-07-26T05:44:40.242Z,175
2016-07-26T05:45:50.788Z,170
2016-07-26T05:46:39.661Z,170
2016-07-26T05:47:39.564Z,165
2016-07-26T05:48:38.973Z,165
2016-07-26T05:49:38.161Z,170
2016-07-26T05:50:38.342Z,170
2016-07-26T05:51:38.398Z,190
2016-07-26T05:52:38.560Z,200
2016-07-26T05:53:39.981Z,225
2016-07-26T05:54:43.770Z,255
2016-07-26T05:55:38.381Z,260
2016-07-26T05:56:38.278Z,250
2016-07-26T05:57:38.276Z,275
2016-07-26T05:58:38.222Z,285
2016-07-26T05:59:38.239Z,240
2016-07-26T06:00:39.134Z,220
2016-07-26T06:01:38.261Z,185
2016-07-26T06:02:38.780Z,165
2016-07-26T06:03:38.257Z,165
2016-07-26T06:04:37.753Z,170
2016-07-26T06:05:38.263Z,175
2016-07-26T06:06:38.395Z,180
2016-07-26T06:07:38.357Z,175
2016-07-26T06:08:39.015Z,175
2016-07-26T06:09:39.608Z,175
2016-07-26T06:10:38.327Z,175
2016-07-26T06:11:38.312Z,175
2016-07-26T06:12:38.355Z,175
2016-07-26T06:13:38.375Z,175
2016-07-26T06:14:38.286Z,175
2016-07-26T06:15:41.148Z,180
2016-07-26T06:16:38.293Z,180
2016-07-26T06:17:38.286Z,180
2016-07-26T06:18:38.267Z,185
2016-07-26T06:19:37.815Z,185
2016-07-26T06:20:38.297Z,190
2016-07-26T06:21:38.807Z,195
2016-07-26T06:22:38.307Z,195
2016-07-26T06:23:38.783Z,200
2016-07-26T06:24:38.317Z,200
2016-07-26T06:25:38.338Z,200
2016-07-26T06:26:38.403Z,210
2016-07-26T06:27:38.983Z,210
2016-07-26T06:28:38.381Z,215
2016-07-26T06:29:38.323Z,215
2016-07-26T06:30:38.365Z,220
2016-07-26T06:31:38.360Z,220
2016-07-26T06:32:38.368Z,220
2016-07-26T06:33:38.281Z,220
2016-07-26T06:34:37.923Z,220
2016-07-26T06:35:38.370Z,215
2016-07-26T06:36:38.349Z,215
2016-07-26T06:37:38.365Z,215
2016-07-26T06:38:38.282Z,215
2016-07-26T06:39:38.451Z,220
2016-07-26T06:40:38.326Z,220
2016-07-26T06:41:38.309Z,220
2016-07-26T06:42:38.271Z,220
2016-07-26T06:43:38.272Z,215
2016-07-26T06:44:38.340Z,215
2016-07-26T06:45:38.320Z,205
2016-07-26T06:46:38.287Z,210
2016-07-26T06:47:38.310Z,215
2016-07-26T06:48:38.419Z,225
2016-07-26T06:49:38.614Z,225
2016-07-26T06:50:38.348Z,225
2016-07-26T06:51:38.493Z,230
2016-07-26T06:52:38.327Z,230
2016-07-26T06:53:38.446Z,225
2016-07-26T06:54:38.466Z,225
2016-07-26T06:55:38.415Z,215
2016-07-26T06:56:38.402Z,210
2016-07-26T06:57:38.396Z,210
2016-07-26T06:58:38.489Z,210
2016-07-26T06:59:38.447Z,235
2016-07-26T07:00:38.389Z,255
2016-07-26T07:01:38.444Z,230
2016-07-26T07:02:38.491Z,205
2016-07-26T07:03:38.436Z,200
2016-07-26T07:04:37.874Z,215
2016-07-26T07:05:38.270Z,230
2016-07-26T07:06:38.351Z,250
2016-07-26T07:07:38.400Z,245
2016-07-26T07:08:38.256Z,260
2016-07-26T07:09:38.434Z,285
2016-07-26T07:10:38.405Z,300
2016-07-26T07:11:38.457Z,310
2016-07-26T07:12:38.441Z,300
2016-07-26T07:13:38.452Z,325
2016-07-26T07:14:38.420Z,285
2016-07-26T07:15:38.444Z,305
2016-07-26T07:16:38.477Z,290
2016-07-26T07:17:38.613Z,300
2016-07-26T07:18:38.307Z,315
2016-07-26T07:19:38.035Z,310
2016-07-26T07:20:38.364Z,375
2016-07-26T07:21:38.288Z,375
2016-07-26T07:22:39.348Z,285
2016-07-26T07:35:38.943Z,285
2016-07-26T07:35:56.110Z,265
2016-07-26T07:36:56.235Z,280
2016-07-26T07:37:56.050Z,280
2016-07-26T07:38:56.057Z,310
2016-07-26T07:39:56.022Z,375
2016-07-26T07:40:56.058Z,305
2016-07-26T07:41:55.999Z,310
2016-07-26T07:42:56.056Z,290
2016-07-26T07:43:56.027Z,290
2016-07-26T07:44:56.044Z,310
2016-07-26T07:45:56.065Z,345
2016-07-26T07:46:56.021Z,380
2016-07-26T07:47:56.020Z,390
2016-07-26T07:48:56.068Z,380
2016-07-26T07:49:56.026Z,375
2016-07-26T07:51:09.003Z,375
2016-07-26T07:51:57.790Z,410
2016-07-26T07:52:56.126Z,565
2016-07-26T07:53:56.236Z,735
2016-07-26T07:54:56.133Z,845
2016-07-26T07:55:56.192Z,825
2016-07-26T07:56:56.311Z,945
2016-07-26T07:57:56.524Z,925
2016-07-26T07:58:56.044Z,1015
2016-07-26T07:59:56.093Z,955
2016-07-26T08:00:56.078Z,330
2016-07-26T08:01:56.072Z,1115
2016-07-26T08:02:56.055Z,1165
2016-07-26T08:03:56.109Z,1190
2016-07-26T08:04:56.141Z,1185
2016-07-26T08:05:56.167Z,1220
2016-07-26T08:06:56.212Z,1095
2016-07-26T08:07:56.150Z,400
2016-07-26T08:08:56.082Z,625
2016-07-26T08:09:56.177Z,270
2016-07-26T08:10:56.128Z,345
2016-07-26T08:11:56.075Z,335
2016-07-26T08:12:56.056Z,930
2016-07-26T08:13:56.063Z,325
2016-07-26T08:14:56.524Z,285
2016-07-26T08:15:56.612Z,265
2016-07-26T08:16:56.027Z,235
2016-07-26T08:17:56.224Z,230
2016-07-26T08:18:56.300Z,1035
2016-07-26T08:19:56.178Z,565
2016-07-26T08:20:56.243Z,950
2016-07-26T08:21:56.045Z,955
2016-07-26T08:22:56.059Z,935
2016-07-26T08:23:56.267Z,1425
2016-07-26T08:24:56.341Z,1420
2016-07-26T08:25:56.159Z,1455
2016-07-26T08:26:56.125Z,1420
2016-07-26T08:27:56.097Z,1065
2016-07-26T08:28:56.381Z,790
2016-07-26T08:29:56.192Z,825
2016-07-26T08:30:56.503Z,625
2016-07-26T08:31:56.155Z,880
2016-07-26T08:32:56.099Z,705
2016-07-26T08:33:56.134Z,490
2016-07-26T08:34:56.034Z,1065
2016-07-26T08:35:56.077Z,905
2016-07-26T08:36:56.105Z,1460
2016-07-26T08:37:56.757Z,1390
2016-07-26T08:38:56.293Z,725
2016-07-26T08:39:56.169Z,1235
2016-07-26T08:40:56.162Z,1215
2016-07-26T08:41:56.208Z,1175
2016-07-26T08:42:56.131Z,1300
2016-07-26T08:43:56.255Z,1575
2016-07-26T08:44:56.082Z,1505
2016-07-26T08:45:56.243Z,1240
2016-07-26T08:46:56.068Z,410
2016-07-26T08:47:56.070Z,1150
2016-07-26T08:48:56.067Z,1825
2016-07-26T08:49:56.144Z,1815
2016-07-26T08:50:56.168Z,1630
2016-07-26T08:51:56.230Z,320
2016-07-26T08:52:56.175Z,325
2016-07-26T08:53:56.231Z,340
2016-07-26T08:54:56.172Z,1725
2016-07-26T08:55:56.229Z,1790
2016-07-26T08:56:56.185Z,1625
2016-07-26T08:57:56.163Z,565
2016-07-26T08:58:56.047Z,460
2016-07-26T08:59:56.076Z,490
2016-07-26T09:00:56.107Z,985
2016-07-26T09:01:56.058Z,1185
2016-07-26T09:02:56.314Z,1060
2016-07-26T09:03:56.377Z,1745
2016-07-26T09:04:57.772Z,950
2016-07-26T09:05:56.839Z,1360
2016-07-26T09:06:56.091Z,1775
2016-07-26T09:07:56.125Z,1580
2016-07-26T09:08:56.175Z,1135
2016-07-26T09:09:56.097Z,1755
2016-07-26T09:10:56.082Z,595
2016-07-26T09:11:56.157Z,1275
2016-07-26T09:12:56.136Z,620
2016-07-26T09:13:56.859Z,1630
2016-07-26T09:14:56.170Z,1435
2016-07-26T09:15:56.491Z,1800
2016-07-26T09:16:56.183Z,1615
2016-07-26T09:17:56.346Z,1250
2016-07-26T09:18:56.216Z,405
2016-07-26T09:19:56.130Z,370
2016-07-26T09:20:56.129Z,490
2016-07-26T09:21:56.229Z,960
2016-07-26T09:22:56.058Z,885
2016-07-26T09:23:56.159Z,495
2016-07-26T09:24:56.315Z,1085
2016-07-26T09:25:56.168Z,1815
2016-07-26T09:26:56.310Z,1770
2016-07-26T09:27:56.238Z,1745
2016-07-26T09:28:56.214Z,1895
2016-07-26T09:29:56.738Z,1875
2016-07-26T09:30:56.073Z,1870
2016-07-26T09:31:56.147Z,1905
2016-07-26T09:32:56.091Z,1940
2016-07-26T09:33:56.146Z,1980
2016-07-26T09:34:56.160Z,1980
2016-07-26T09:35:56.710Z,1840
2016-07-26T09:36:56.210Z,1760
2016-07-26T09:38:04.473Z,1695
2016-07-26T09:38:56.227Z,1460
2016-07-26T09:39:58.105Z,1980
2016-07-26T09:40:56.430Z,1950
2016-07-26T09:41:57.034Z,1895
2016-07-26T09:42:56.262Z,1875
2016-07-26T09:43:56.089Z,1885
2016-07-26T09:44:56.114Z,1840
2016-07-26T09:45:56.084Z,1860
2016-07-26T09:46:56.307Z,1850
2016-07-26T09:47:56.255Z,1865
2016-07-26T09:48:56.236Z,1810
2016-07-26T09:49:56.315Z,1815
2016-07-26T09:50:56.238Z,1865
2016-07-26T09:51:56.254Z,1870
2016-07-26T09:52:56.105Z,1935
2016-07-26T09:53:56.165Z,1945
2016-07-26T09:55:01.417Z,1935
2016-07-26T09:55:56.114Z,1910
2016-07-26T09:56:56.221Z,1875
2016-07-26T09:57:56.206Z,1900
2016-07-26T09:58:56.252Z,1940
2016-07-26T09:59:56.189Z,1970
2016-07-26T10:00:56.211Z,1955
2016-07-26T10:01:56.108Z,1940
2016-07-26T10:02:56.141Z,1740
2016-07-26T10:03:56.165Z,1470
2016-07-26T10:04:56.173Z,1740
2016-07-26T10:05:56.231Z,1975
2016-07-26T10:06:56.142Z,615
2016-07-26T10:07:56.194Z,425
2016-07-26T10:08:56.149Z,325
2016-07-26T10:09:56.317Z,305
2016-07-26T10:10:56.201Z,425
2016-07-26T10:11:56.148Z,1955
2016-07-26T10:12:56.139Z,1895
2016-07-26T10:13:56.138Z,1885
2016-07-26T10:14:56.182Z,1870
2016-07-26T10:15:56.583Z,1900
2016-07-26T10:16:58.042Z,1890
2016-07-26T10:17:57.312Z,1915
2016-07-26T10:18:56.308Z,1900
2016-07-26T10:19:57.853Z,1780
2016-07-26T10:20:56.317Z,1820
2016-07-26T10:21:56.236Z,1790
2016-07-26T10:22:56.204Z,1870
2016-07-26T10:23:57.046Z,1895
2016-07-26T10:24:56.165Z,1870
2016-07-26T10:25:56.133Z,1820
2016-07-26T10:26:56.175Z,1805
2016-07-26T10:27:56.261Z,1755
2016-07-26T10:28:56.130Z,1805
2016-07-26T10:29:56.342Z,1860
2016-07-26T10:30:56.183Z,1920
2016-07-26T10:31:56.855Z,1870
2016-07-26T10:32:56.267Z,1845
2016-07-26T10:33:56.247Z,1865
2016-07-26T10:34:56.204Z,1875
2016-07-26T10:35:56.234Z,495
2016-07-26T10:36:56.165Z,1500
2016-07-26T10:37:56.184Z,1845
2016-07-26T10:38:56.174Z,410
2016-07-26T10:39:56.210Z,1030
2016-07-26T10:40:56.195Z,2055
2016-07-26T10:41:56.332Z,2080
2016-07-26T10:42:56.335Z,2075
2016-07-26T10:43:56.238Z,2145
2016-07-26T10:44:56.297Z,2120
2016-07-26T10:45:56.186Z,2135
2016-07-26T10:46:56.153Z,1750
2016-07-26T10:47:59.415Z,1495
2016-07-26T10:48:56.236Z,1900
2016-07-26T10:49:56.155Z,1935
2016-07-26T10:50:58.253Z,425
2016-07-26T10:51:56.280Z,390
2016-07-26T10:52:56.153Z,435
2016-07-26T10:53:56.293Z,1795
2016-07-26T10:54:58.606Z,1805
2016-07-26T10:55:56.829Z,1775
2016-07-26T10:56:56.137Z,1700
2016-07-26T10:57:59.049Z,1685
2016-07-26T10:58:56.204Z,1680
2016-07-26T10:59:56.227Z,1675
2016-07-26T11:00:56.906Z,1675
2016-07-26T11:01:56.204Z,1660
2016-07-26T11:02:56.303Z,1685
2016-07-26T11:03:56.268Z,1660
2016-07-26T11:04:56.595Z,1645
2016-07-26T11:05:56.154Z,1640
2016-07-26T11:06:56.365Z,1635
2016-07-26T11:07:56.289Z,1710
2016-07-26T11:08:56.559Z,1790
2016-07-26T11:09:56.137Z,1880
2016-07-26T11:10:56.221Z,1950
2016-07-26T11:11:56.158Z,1920
2016-07-26T11:12:57.476Z,1590
2016-07-26T11:13:56.312Z,1985
2016-07-26T11:14:56.225Z,1365
2016-07-26T11:15:56.392Z,585
2016-07-26T11:16:56.354Z,530
2016-07-26T11:17:56.381Z,1660
2016-07-26T11:18:56.337Z,1645
2016-07-26T11:19:56.298Z,1790
2016-07-26T11:20:56.240Z,1565
2016-07-26T11:21:56.189Z,1380
2016-07-26T11:23:00.127Z,905
2016-07-26T11:24:10.947Z,745
2016-07-26T11:24:57.124Z,1440
2016-07-26T11:25:56.300Z,1800
2016-07-26T11:27:00.552Z,2005
2016-07-26T11:27:56.187Z,545
2016-07-26T11:28:56.328Z,600
2016-07-26T11:29:56.188Z,530
2016-07-26T11:30:56.947Z,485
2016-07-26T11:31:56.288Z,435
2016-07-26T11:32:56.851Z,395
2016-07-26T11:33:56.242Z,390
2016-07-26T11:34:56.203Z,375
2016-07-26T11:35:56.271Z,355
2016-07-26T11:37:00.889Z,380
2016-07-26T11:37:56.290Z,430
2016-07-26T11:39:08.678Z,505
2016-07-26T11:40:12.531Z,420
2016-07-26T11:40:56.360Z,375
2016-07-26T11:42:00.809Z,390
2016-07-26T11:42:56.228Z,400
2016-07-26T11:43:56.242Z,390
2016-07-26T11:44:56.258Z,395
2016-07-26T11:45:56.220Z,410
2016-07-26T11:46:56.275Z,425
2016-07-26T11:47:56.249Z,480
2016-07-26T11:48:56.185Z,795
2016-07-26T11:49:56.231Z,560
2016-07-26T11:50:56.164Z,925
2016-07-26T11:51:56.236Z,520
2016-07-26T11:52:56.199Z,520
2016-07-26T11:53:56.198Z,490
2016-07-26T11:54:56.210Z,400
2016-07-26T11:55:56.223Z,410
2016-07-26T11:56:56.232Z,460
2016-07-26T11:57:56.859Z,1215
2016-07-26T11:58:56.222Z,780
2016-07-26T11:59:56.219Z,435
2016-07-26T12:00:56.229Z,415
2016-07-26T12:01:56.879Z,395
2016-07-26T12:02:56.786Z,1035
2016-07-26T12:04:00.154Z,1125
2016-07-26T12:04:56.837Z,555
2016-07-26T12:05:56.919Z,480
2016-07-26T12:06:56.202Z,410
2016-07-26T12:07:56.235Z,405
2016-07-26T12:08:56.885Z,460
2016-07-26T12:09:56.189Z,455
2016-07-26T12:10:56.664Z,430
2016-07-26T12:11:56.222Z,415
2016-07-26T12:12:56.211Z,555
2016-07-26T12:13:56.257Z,1190
2016-07-26T12:14:56.281Z,1700
2016-07-26T12:15:56.229Z,720
2016-07-26T12:16:56.252Z,645
2016-07-26T12:17:56.234Z,435
2016-07-26T12:18:56.255Z,410
2016-07-26T12:19:57.171Z,425
2016-07-26T12:20:56.221Z,435
2016-07-26T12:21:56.238Z,885
2016-07-26T12:22:56.266Z,1145
2016-07-26T12:23:56.260Z,1110
2016-07-26T12:24:56.226Z,430
2016-07-26T12:25:56.774Z,435
2016-07-26T12:26:57.086Z,640
2016-07-26T12:27:56.278Z,1010
2016-07-26T12:28:56.223Z,780
2016-07-26T12:29:56.492Z,565
2016-07-26T12:30:56.235Z,570
2016-07-26T12:31:56.266Z,1400
2016-07-26T12:32:56.262Z,1280
2016-07-26T12:33:56.235Z,1030
2016-07-26T12:34:56.278Z,515
2016-07-26T12:35:57.495Z,510
2016-07-26T12:36:56.284Z,480
2016-07-26T12:37:56.325Z,610
2016-07-26T12:38:56.264Z,465
2016-07-26T12:39:56.541Z,520
2016-07-26T12:40:56.319Z,575
2016-07-26T12:41:56.265Z,480
2016-07-26T12:42:56.272Z,455
2016-07-26T12:43:56.217Z,365
2016-07-26T12:44:58.213Z,435
2016-07-26T12:45:56.366Z,455
2016-07-26T12:46:57.259Z,560
2016-07-26T12:47:56.880Z,390
2016-07-26T12:48:56.258Z,400
2016-07-26T12:50:56.254Z,755
2016-07-26T12:51:56.315Z,525
2016-07-26T12:52:56.288Z,460
2016-07-26T12:53:56.335Z,385
2016-07-26T12:54:56.455Z,365
2016-07-26T12:55:56.487Z,305
2016-07-26T12:56:58.126Z,275
2016-07-26T12:57:56.249Z,280
2016-07-26T12:58:56.951Z,300
2016-07-26T13:00:05.116Z,290
2016-07-26T13:01:05.118Z,280
2016-07-26T13:02:05.030Z,260
2016-07-26T13:03:05.076Z,310
2016-07-26T13:04:36.466Z,365
2016-07-26T13:05:05.081Z,345
2016-07-26T13:06:13.687Z,285
2016-07-26T13:07:05.065Z,275
2016-07-26T13:08:05.139Z,340
2016-07-26T13:09:05.073Z,480
2016-07-26T13:10:05.279Z,530
2016-07-26T13:11:04.484Z,540
2016-07-26T13:12:05.059Z,350
2016-07-26T13:13:05.078Z,355
2016-07-26T13:14:05.074Z,320
2016-07-26T13:15:05.026Z,315
2016-07-26T13:16:05.170Z,360
2016-07-26T13:17:05.091Z,805
2016-07-26T13:18:23.659Z,690
2016-07-26T13:19:05.078Z,495
2016-07-26T13:20:05.094Z,415
2016-07-26T13:21:05.047Z,370
2016-07-26T13:22:05.037Z,390
2016-07-26T13:23:05.265Z,435
2016-07-26T13:24:05.037Z,390
2016-07-26T13:25:05.033Z,360
2016-07-26T13:26:05.051Z,345
2016-07-26T13:27:05.079Z,345
2016-07-26T13:28:05.723Z,335
2016-07-26T13:29:05.120Z,305
2016-07-26T13:30:05.116Z,290
2016-07-26T13:31:05.045Z,285
2016-07-26T13:32:05.134Z,325
2016-07-26T13:33:05.067Z,305
2016-07-26T13:34:06.172Z,290
2016-07-26T13:35:05.066Z,285
2016-07-26T13:36:05.077Z,290
2016-07-26T13:37:05.755Z,285
2016-07-26T13:38:05.038Z,310
2016-07-26T13:39:05.067Z,340
2016-07-26T13:40:05.096Z,875
2016-07-26T13:41:05.104Z,355
2016-07-26T13:42:05.093Z,335
2016-07-26T13:43:05.078Z,330
2016-07-26T13:44:05.086Z,320
2016-07-26T13:45:05.076Z,305
2016-07-26T13:46:05.397Z,315
2016-07-26T13:47:05.656Z,275
2016-07-26T13:48:05.071Z,265
2016-07-26T13:49:10.406Z,270
2016-07-26T13:50:05.163Z,280
2016-07-26T13:51:05.201Z,275
2016-07-26T13:52:05.650Z,265
2016-07-26T13:53:05.404Z,265
2016-07-26T13:54:05.231Z,260
2016-07-26T13:55:07.543Z,270
2016-07-26T13:56:11.520Z,280
2016-07-26T13:57:05.199Z,290
2016-07-26T13:58:05.109Z,290
2016-07-26T13:59:06.160Z,300
2016-07-26T14:00:05.105Z,285
2016-07-26T14:01:05.169Z,290
2016-07-26T14:02:05.132Z,305
2016-07-26T14:03:05.193Z,285
2016-07-26T14:04:05.077Z,265
2016-07-26T14:05:05.124Z,300
2016-07-26T14:06:05.137Z,285
2016-07-26T14:07:05.165Z,260
2016-07-26T14:08:05.908Z,270
2016-07-26T14:09:05.327Z,305
2016-07-26T14:10:05.170Z,270
2016-07-26T14:11:05.127Z,245
2016-07-26T14:12:05.126Z,220
2016-07-26T14:13:05.169Z,195
2016-07-26T14:14:05.106Z,195
2016-07-26T14:15:05.158Z,200
2016-07-26T14:16:05.152Z,205
2016-07-26T14:17:05.131Z,215
2016-07-26T14:18:05.135Z,220
2016-07-26T14:19:05.143Z,205
2016-07-26T14:20:05.171Z,200
2016-07-26T14:21:05.277Z,185
2016-07-26T14:22:05.146Z,185
2016-07-26T14:23:05.097Z,200
2016-07-26T14:24:05.129Z,215
2016-07-26T14:25:05.124Z,220
2016-07-26T14:26:05.156Z,205
2016-07-26T14:27:05.121Z,200
2016-07-26T14:28:05.136Z,235
2016-07-26T14:29:05.131Z,240
2016-07-26T14:30:05.064Z,235
2016-07-26T14:31:05.126Z,205
2016-07-26T14:32:05.162Z,170
2016-07-26T14:33:05.062Z,150
2016-07-26T14:34:05.191Z,145
2016-07-26T14:35:05.097Z,150
2016-07-26T14:36:05.190Z,150
2016-07-26T14:37:05.115Z,150
2016-07-26T14:38:05.108Z,145
2016-07-26T14:39:05.054Z,145
2016-07-26T14:40:22.833Z,160
2016-07-26T14:41:05.078Z,165
2016-07-26T14:54:05.902Z,135
2016-07-26T14:54:23.313Z,130
2016-07-26T14:55:23.022Z,115
2016-07-26T14:56:23.007Z,110
2016-07-26T14:57:23.019Z,110
2016-07-26T14:58:23.024Z,110
2016-07-26T14:59:22.976Z,115
2016-07-26T15:00:23.682Z,115
2016-07-26T15:01:23.068Z,130
2016-07-26T15:02:23.041Z,150
2016-07-26T15:03:23.062Z,150
2016-07-26T15:04:23.055Z,140
2016-07-26T15:05:23.493Z,130
2016-07-26T15:06:23.005Z,130
2016-07-26T15:07:23.040Z,120
2016-07-26T15:08:23.081Z,120
2016-07-26T15:09:23.104Z,115
2016-07-26T15:10:23.114Z,110
2016-07-26T15:11:23.168Z,110